Time;durP1;ratioP1;P1;durP2;ratioP2;P2;SDS_P1;SDS_P2;PMS_P1;PMS_P2;Temp;Humidity;BMP_temperature;BMP_pressure;BME280_temperature;BME280_humidity;BME280_pressure;Samples;Min_cycle;Max_cycle;Signal;HPM_P1;HPM_P2
2024/01/28 00:00:47;;;;;;;;;;;;;;;18.56;62.01;100255.84;2089592;28;19929;-75
2024/01/28 00:01:50;;;;;;;;;;;;;;;18.53;62.30;100255.16;2090766;28;19971;-76
2024/01/28 00:02:51;;;;;;;;;;;;;;;18.53;62.22;100262.38;2088865;28;19925;-76
2024/01/28 00:03:53;;;;;;;;;;;;;;;18.50;62.15;100263.53;2090724;28;19985;-75
2024/01/28 00:04:53;;;;;;;;;;;;;;;18.50;62.25;100254.66;2090382;28;19928;-76
2024/01/28 00:05:55;;;;;;;;;;;;;;;18.52;62.36;100258.00;2089892;28;20390;-75
2024/01/28 00:06:55;;;;;;;;;;;;;;;18.50;62.08;100254.66;2087888;28;20395;-76
2024/01/28 00:07:57;;;;;;;;;;;;;;;18.52;62.25;100255.31;2090307;28;20027;-77
2024/01/28 00:08:58;;;;;;;;;;;;;;;18.52;62.49;100255.31;2090102;28;19968;-76
2024/01/28 00:09:59;;;;;;;;;;;;;;;18.49;62.32;100258.31;2087903;28;19939;-75
2024/01/28 00:11:00;;;;;;;;;;;;;;;18.47;62.20;100258.50;2089140;28;19935;-75
2024/01/28 00:12:01;;;;;;;;;;;;;;;18.46;62.37;100256.81;2093103;28;19935;-75
2024/01/28 00:13:02;;;;;;;;;;;;;;;18.46;62.30;100262.19;2091147;28;19924;-75
2024/01/28 00:14:03;;;;;;;;;;;;;;;18.42;62.49;100260.84;2088608;28;19964;-78
2024/01/28 00:15:06;;;;;;;;;;;;;;;18.39;62.69;100266.53;2090570;28;19998;-76
2024/01/28 00:16:12;;;;;;;;;;;;;;;18.43;62.63;100264.34;2089395;28;19932;-76
2024/01/28 00:17:15;;;;;;;;;;;;;;;18.44;62.34;100263.34;2090784;28;19929;-76
2024/01/28 00:18:16;;;;;;;;;;;;;;;18.43;62.50;100265.19;2088455;28;19928;-75
2024/01/28 00:19:17;;;;;;;;;;;;;;;18.40;62.56;100260.16;2091317;28;19971;-75
2024/01/28 00:20:19;;;;;;;;;;;;;;;18.40;62.53;100268.22;2087864;28;19928;-78
2024/01/28 00:21:20;;;;;;;;;;;;;;;18.41;62.53;100266.34;2090086;28;20288;-75
2024/01/28 00:22:21;;;;;;;;;;;;;;;18.41;62.83;100271.72;2088115;28;19931;-75
2024/01/28 00:23:22;;;;;;;;;;;;;;;18.41;62.19;100264.50;2091686;28;20028;-75
2024/01/28 00:24:23;;;;;;;;;;;;;;;18.38;62.63;100270.22;2089946;28;19929;-76
2024/01/28 00:25:25;;;;;;;;;;;;;;;18.37;62.60;100268.53;2091296;28;19932;-79
2024/01/28 00:26:26;;;;;;;;;;;;;;;18.36;62.63;100264.19;2090587;28;19982;-75
2024/01/28 00:27:27;;;;;;;;;;;;;;;18.36;62.36;100264.19;2089601;28;19971;-77
2024/01/28 00:28:29;;;;;;;;;;;;;;;18.34;62.64;100262.66;2089178;28;19928;-75
2024/01/28 00:29:29;;;;;;;;;;;;;;;18.33;62.86;100261.81;2088209;28;20612;-78
2024/01/28 00:30:32;;;;;;;;;;;;;;;18.31;62.56;100258.44;2089481;28;19935;-75
2024/01/28 00:31:33;;;;;;;;;;;;;;;18.30;62.60;100267.47;2088950;28;20482;-78
2024/01/28 00:32:35;;;;;;;;;;;;;;;18.28;62.71;100258.78;2091014;28;20020;-77
2024/01/28 00:33:36;;;;;;;;;;;;;;;18.28;62.81;100261.47;2089609;28;19952;-77
2024/01/28 00:34:37;;;;;;;;;;;;;;;18.28;62.80;100264.13;2088853;28;20323;-74
2024/01/28 00:35:39;;;;;;;;;;;;;;;18.28;62.66;100264.13;2090489;28;19935;-78
2024/01/28 00:36:39;;;;;;;;;;;;;;;18.28;62.75;100266.81;2090979;28;21570;-75
2024/01/28 00:37:41;;;;;;;;;;;;;;;18.27;62.82;100262.44;2091361;28;19965;-76
2024/01/28 00:38:41;;;;;;;;;;;;;;;18.27;62.77;100265.13;2091487;28;19925;-75
2024/01/28 00:39:43;;;;;;;;;;;;;;;18.26;62.85;100260.78;2092417;28;20028;-74
2024/01/28 00:40:44;;;;;;;;;;;;;;;18.27;62.76;100267.81;2089937;28;19932;-75
2024/01/28 00:41:45;;;;;;;;;;;;;;;18.24;62.60;100268.97;2088681;28;19975;-76
2024/01/28 00:42:46;;;;;;;;;;;;;;;18.27;62.82;100275.88;2089612;28;19929;-75
2024/01/28 00:43:46;;;;;;;;;;;;;;;18.28;62.75;100274.88;2090400;28;19972;-74
2024/01/28 00:44:48;;;;;;;;;;;;;;;18.24;62.59;100268.97;2090286;28;19971;-75
2024/01/28 00:45:49;;;;;;;;;;;;;;;18.24;62.80;100270.81;2087682;28;19982;-76
2024/01/28 00:46:50;;;;;;;;;;;;;;;18.28;62.58;100280.25;2085202;28;19936;-75
2024/01/28 00:47:52;;;;;;;;;;;;;;;18.28;62.62;100274.88;2091128;28;19932;-77
2024/01/28 00:48:54;;;;;;;;;;;;;;;18.37;62.73;100267.69;2087637;28;20012;-76
2024/01/28 00:49:54;;;;;;;;;;;;;;;18.36;62.88;100266.00;2088897;28;19932;-76
2024/01/28 00:50:56;;;;;;;;;;;;;;;18.37;62.37;100270.38;2093208;28;19947;-77
2024/01/28 00:51:57;;;;;;;;;;;;;;;18.36;62.50;100266.88;2089254;28;19940;-75
2024/01/28 00:52:58;;;;;;;;;;;;;;;18.36;62.45;100271.38;2090545;28;19975;-78
2024/01/28 00:53:59;;;;;;;;;;;;;;;18.34;62.73;100271.53;2090852;28;19932;-75
2024/01/28 00:55:01;;;;;;;;;;;;;;;18.31;62.62;100275.41;2088994;28;20284;-77
2024/01/28 00:56:03;;;;;;;;;;;;;;;18.31;62.81;100275.41;2089089;28;19935;-77
2024/01/28 00:57:06;;;;;;;;;;;;;;;18.27;62.79;100265.97;2090612;28;21534;-76
2024/01/28 00:58:08;;;;;;;;;;;;;;;18.29;62.69;100276.56;2087922;28;20632;-77
2024/01/28 00:59:10;;;;;;;;;;;;;;;18.27;62.91;100278.56;2090103;28;19928;-78
2024/01/28 01:00:11;;;;;;;;;;;;;;;18.27;62.65;100275.88;2087519;28;20726;-76
2024/01/28 01:01:13;;;;;;;;;;;;;;;18.26;62.88;100277.72;2088949;28;19963;-78
2024/01/28 01:02:14;;;;;;;;;;;;;;;18.26;62.91;100275.03;2088852;28;20294;-76
2024/01/28 01:03:17;;;;;;;;;;;;;;;18.23;62.78;100275.34;2089947;28;19968;-76
2024/01/28 01:04:17;;;;;;;;;;;;;;;18.19;63.10;100276.69;2089141;28;19943;-76
2024/01/28 01:05:19;;;;;;;;;;;;;;;18.20;62.91;100269.47;2085530;28;20015;-77
2024/01/28 01:06:19;;;;;;;;;;;;;;;18.20;63.27;100272.16;2090248;28;19928;-78
2024/01/28 01:07:20;;;;;;;;;;;;;;;18.20;63.06;100273.00;2086429;28;19928;-79
2024/01/28 01:08:22;;;;;;;;;;;;;;;18.21;62.97;100273.84;2090556;28;19929;-76
2024/01/28 01:09:23;;;;;;;;;;;;;;;18.21;63.27;100281.91;2086068;28;19937;-79
2024/01/28 01:10:25;;;;;;;;;;;;;;;18.18;63.48;100280.38;2089701;28;19924;-80
2024/01/28 01:11:26;;;;;;;;;;;;;;;18.19;63.18;100282.06;2088320;28;19960;-79
2024/01/28 01:12:27;;;;;;;;;;;;;;;18.17;63.10;100278.69;2087422;28;19932;-76
2024/01/28 01:13:28;;;;;;;;;;;;;;;18.17;63.29;100280.53;2090372;28;19924;-79
2024/01/28 01:14:29;;;;;;;;;;;;;;;18.18;63.49;100279.53;2090383;28;19964;-80
2024/01/28 01:15:31;;;;;;;;;;;;;;;18.17;63.33;100283.22;2088098;28;19929;-76
2024/01/28 01:16:32;;;;;;;;;;;;;;;18.16;63.36;100284.22;2091482;28;19924;-76
2024/01/28 01:17:33;;;;;;;;;;;;;;;18.16;63.60;100281.53;2086685;28;19959;-76
2024/01/28 01:18:35;;;;;;;;;;;;;;;18.16;63.37;100287.72;2090070;28;20319;-76
2024/01/28 01:19:37;;;;;;;;;;;;;;;18.16;63.58;100287.72;2088742;28;19928;-76
2024/01/28 01:20:38;;;;;;;;;;;;;;;18.12;63.67;100280.19;2089606;28;19936;-80
2024/01/28 01:21:39;;;;;;;;;;;;;;;18.12;63.87;100296.28;2090526;28;20435;-80
2024/01/28 01:22:40;;;;;;;;;;;;;;;18.11;63.98;100283.84;2087905;28;20441;-76
2024/01/28 01:23:42;;;;;;;;;;;;;;;18.06;63.98;100287.88;2088678;28;19928;-77
2024/01/28 01:24:42;;;;;;;;;;;;;;;18.09;63.87;100282.19;2090106;28;20394;-79
2024/01/28 01:25:45;;;;;;;;;;;;;;;18.11;63.91;100289.22;2088076;28;19928;-77
2024/01/28 01:26:46;;;;;;;;;;;;;;;18.08;64.08;100293.09;2088993;28;19951;-76
2024/01/28 01:27:48;;;;;;;;;;;;;;;18.08;63.94;100295.78;2086988;28;20392;-77
2024/01/28 01:28:50;;;;;;;;;;;;;;;18.08;63.82;100302.00;2089563;28;19940;-78
2024/01/28 01:29:50;;;;;;;;;;;;;;;18.07;64.30;100302.97;2090701;28;19971;-77
2024/01/28 01:30:52;;;;;;;;;;;;;;;18.08;63.74;100307.34;2090497;28;20019;-77
2024/01/28 01:31:54;;;;;;;;;;;;;;;18.07;64.07;100304.81;2089125;28;20266;-76
2024/01/28 01:32:56;;;;;;;;;;;;;;;18.05;64.01;100318.41;2087987;28;19939;-77
2024/01/28 01:33:58;;;;;;;;;;;;;;;18.05;64.05;100307.69;2088742;28;19968;-77
2024/01/28 01:35:00;;;;;;;;;;;;;;;18.08;64.02;100307.34;2087448;28;20132;-77
2024/01/28 01:36:01;;;;;;;;;;;;;;;18.06;64.14;100312.03;2088847;28;19928;-76
2024/01/28 01:37:03;;;;;;;;;;;;;;;18.05;64.09;100315.72;2089673;28;20015;-79
2024/01/28 01:38:04;;;;;;;;;;;;;;;18.03;63.97;100320.41;2088388;28;19925;-77
2024/01/28 01:39:05;;;;;;;;;;;;;;;18.03;64.00;100319.56;2089335;28;19935;-77
2024/01/28 01:40:07;;;;;;;;;;;;;;;18.02;64.26;100318.72;2089951;28;19990;-77
2024/01/28 01:41:07;;;;;;;;;;;;;;;18.04;64.05;100316.72;2089973;28;19974;-78
2024/01/28 01:42:09;;;;;;;;;;;;;;;18.06;64.27;100320.09;2089389;28;20066;-76
2024/01/28 01:43:10;;;;;;;;;;;;;;;18.04;64.00;100316.72;2088336;28;20366;-76
2024/01/28 01:44:12;;;;;;;;;;;;;;;18.04;64.33;100315.88;2088239;28;19924;-76
2024/01/28 01:45:12;;;;;;;;;;;;;;;18.02;64.25;100320.56;2088097;28;19971;-76
2024/01/28 01:46:14;;;;;;;;;;;;;;;18.01;64.37;100317.03;2089651;28;19928;-77
2024/01/28 01:47:15;;;;;;;;;;;;;;;18.00;64.37;100320.72;2087502;28;19944;-76
2024/01/28 01:48:15;;;;;;;;;;;;;;;18.00;64.30;100323.41;2088761;28;19970;-76
2024/01/28 01:49:19;;;;;;;;;;;;;;;17.98;64.15;100322.72;2089662;28;19928;-77
2024/01/28 01:50:19;;;;;;;;;;;;;;;17.99;64.38;100313.66;2088714;28;19935;-77
2024/01/28 01:51:23;;;;;;;;;;;;;;;18.01;64.43;100321.56;2086835;28;20055;-76
2024/01/28 01:52:23;;;;;;;;;;;;;;;17.99;64.49;100316.34;2089254;28;19932;-75
2024/01/28 01:53:25;;;;;;;;;;;;;;;17.99;64.33;100316.34;2088721;28;20926;-81
2024/01/28 01:54:26;;;;;;;;;;;;;;;18.01;64.39;100322.41;2087134;28;19939;-81
2024/01/28 01:55:29;;;;;;;;;;;;;;;17.99;64.29;100313.66;2087944;28;19925;-77
2024/01/28 01:56:31;;;;;;;;;;;;;;;17.99;64.31;100310.97;2089732;28;19928;-77
2024/01/28 01:57:33;;;;;;;;;;;;;;;17.98;64.27;100306.63;2088222;28;20003;-76
2024/01/28 01:58:33;;;;;;;;;;;;;;;18.00;64.38;100304.63;2090948;28;19932;-76
2024/01/28 01:59:35;;;;;;;;;;;;;;;17.96;64.47;100311.28;2088907;28;19928;-75
2024/01/28 02:00:37;;;;;;;;;;;;;;;17.98;64.35;100311.97;2088083;28;20013;-76
2024/01/28 02:01:39;;;;;;;;;;;;;;;18.00;64.52;100320.72;2089480;28;19929;-76
2024/01/28 02:02:40;;;;;;;;;;;;;;;17.99;64.14;100321.72;2088450;28;19936;-76
2024/01/28 02:03:41;;;;;;;;;;;;;;;17.96;64.50;100316.66;2090554;28;20411;-77
2024/01/28 02:04:45;;;;;;;;;;;;;;;17.96;64.50;100313.13;2088669;28;19929;-76
2024/01/28 02:05:45;;;;;;;;;;;;;;;17.96;64.61;100319.34;2085895;28;21667;-77
2024/01/28 02:06:47;;;;;;;;;;;;;;;17.96;64.53;100316.66;2091225;28;19936;-76
2024/01/28 02:07:48;;;;;;;;;;;;;;;17.94;64.73;100317.81;2077025;28;19928;-80
2024/01/28 02:08:50;;;;;;;;;;;;;;;17.96;64.60;100313.13;2085684;28;20039;-80
2024/01/28 02:09:51;;;;;;;;;;;;;;;17.94;64.79;100313.31;2089258;28;19971;-77
2024/01/28 02:10:52;;;;;;;;;;;;;;;17.93;64.51;100313.47;2087999;28;19929;-80
2024/01/28 02:11:53;;;;;;;;;;;;;;;17.93;64.62;100314.31;2089270;28;19968;-76
2024/01/28 02:12:55;;;;;;;;;;;;;;;17.92;64.79;100312.63;2088265;28;20280;-76
2024/01/28 02:13:56;;;;;;;;;;;;;;;17.93;64.68;100325.03;2088671;28;19947;-80
2024/01/28 02:15:03;;;;;;;;;;;;;;;17.90;64.79;100325.34;2087799;28;20554;-77
2024/01/28 02:16:04;;;;;;;;;;;;;;;17.90;64.74;100330.72;2090668;28;19924;-77
2024/01/28 02:17:06;;;;;;;;;;;;;;;17.90;64.99;100336.09;2088008;28;19929;-78
2024/01/28 02:18:07;;;;;;;;;;;;;;;17.90;64.76;100321.84;2089511;28;19974;-75
2024/01/28 02:19:09;;;;;;;;;;;;;;;17.88;64.92;100331.88;2087428;28;19940;-76
2024/01/28 02:20:12;;;;;;;;;;;;;;;17.88;64.61;100321.13;2088719;28;19943;-78
2024/01/28 02:21:13;;;;;;;;;;;;;;;17.88;64.89;100326.50;2089556;28;19990;-77
2024/01/28 02:22:14;;;;;;;;;;;;;;;17.85;64.90;100327.66;2086032;28;19928;-79
2024/01/28 02:23:17;;;;;;;;;;;;;;;17.85;64.87;100323.13;2089003;28;19972;-77
2024/01/28 02:24:18;;;;;;;;;;;;;;;17.88;64.82;100326.50;2089076;28;19929;-77
2024/01/28 02:25:20;;;;;;;;;;;;;;;17.87;64.70;100325.66;2089403;28;19932;-76
2024/01/28 02:26:20;;;;;;;;;;;;;;;17.84;64.87;100332.19;2088421;28;19932;-80
2024/01/28 02:27:22;;;;;;;;;;;;;;;17.83;64.81;100329.69;2090366;28;19928;-76
2024/01/28 02:28:25;;;;;;;;;;;;;;;17.82;64.84;100330.66;2088294;28;20220;-75
2024/01/28 02:29:26;;;;;;;;;;;;;;;17.82;64.95;100336.03;2089374;28;19928;-78
2024/01/28 02:30:27;;;;;;;;;;;;;;;17.78;65.12;100331.97;2089063;28;19935;-76
2024/01/28 02:31:29;;;;;;;;;;;;;;;17.78;64.76;100335.50;2089936;28;19964;-79
2024/01/28 02:32:29;;;;;;;;;;;;;;;17.80;65.12;100333.53;2087006;28;20572;-76
2024/01/28 02:33:31;;;;;;;;;;;;;;;17.77;64.99;100335.63;2087144;28;20007;-76
2024/01/28 02:34:32;;;;;;;;;;;;;;;17.81;65.11;100342.41;2089192;28;19963;-76
2024/01/28 02:35:33;;;;;;;;;;;;;;;17.78;64.89;100331.97;2090522;28;19929;-78
2024/01/28 02:36:35;;;;;;;;;;;;;;;17.77;65.06;100335.63;2087231;28;19951;-76
2024/01/28 02:37:36;;;;;;;;;;;;;;;17.76;64.75;100340.16;2088467;28;20011;-78
2024/01/28 02:38:39;;;;;;;;;;;;;;;17.79;65.09;100336.34;2086030;28;19928;-76
2024/01/28 02:39:41;;;;;;;;;;;;;;;17.78;64.92;100331.97;2087304;28;20521;-75
2024/01/28 02:40:42;;;;;;;;;;;;;;;17.79;65.03;100333.66;2086847;28;20405;-76
2024/01/28 02:41:43;;;;;;;;;;;;;;;17.78;65.00;100330.16;2089043;28;19928;-76
2024/01/28 02:42:44;;;;;;;;;;;;;;;17.76;65.09;100326.72;2086438;28;19939;-75
2024/01/28 02:43:45;;;;;;;;;;;;;;;17.75;65.33;100327.75;2089247;28;19971;-77
2024/01/28 02:44:46;;;;;;;;;;;;;;;17.78;65.29;100326.59;2089287;28;19929;-76
2024/01/28 02:45:48;;;;;;;;;;;;;;;17.76;65.05;100333.94;2088991;28;20016;-76
2024/01/28 02:46:48;;;;;;;;;;;;;;;17.75;65.13;100332.28;2087828;28;19932;-76
2024/01/28 02:47:50;;;;;;;;;;;;;;;17.75;65.09;100329.59;2087785;28;19929;-77
2024/01/28 02:48:51;;;;;;;;;;;;;;;17.73;65.07;100328.91;2085746;28;19939;-80
2024/01/28 02:49:51;;;;;;;;;;;;;;;17.71;65.11;100329.03;2089026;28;19938;-80
2024/01/28 02:50:53;;;;;;;;;;;;;;;17.71;65.07;100326.34;2088848;28;19928;-81
2024/01/28 02:51:54;;;;;;;;;;;;;;;17.72;65.25;100328.06;2089171;28;19979;-79
2024/01/28 02:52:54;;;;;;;;;;;;;;;17.71;65.16;100336.25;2087634;28;19924;-76
2024/01/28 02:53:58;;;;;;;;;;;;;;;17.70;65.03;100330.06;2087078;28;19933;-77
2024/01/28 02:54:59;;;;;;;;;;;;;;;17.68;65.28;100332.03;2088408;28;20130;-77
2024/01/28 02:56:01;;;;;;;;;;;;;;;17.68;65.17;100336.56;2087282;28;20297;-76
2024/01/28 02:57:01;;;;;;;;;;;;;;;17.69;65.22;100341.78;2088500;28;19928;-76
2024/01/28 02:58:03;;;;;;;;;;;;;;;17.69;65.35;100341.78;2088903;28;19990;-76
2024/01/28 02:59:04;;;;;;;;;;;;;;;17.69;65.22;100332.88;2086080;28;19925;-76
2024/01/28 03:00:06;;;;;;;;;;;;;;;17.65;65.13;100335.88;2087283;28;19982;-77
2024/01/28 03:01:07;;;;;;;;;;;;;;;17.67;65.28;100329.53;2087858;28;19936;-74
2024/01/28 03:02:08;;;;;;;;;;;;;;;17.64;65.30;100331.53;2088460;28;19928;-79
2024/01/28 03:03:09;;;;;;;;;;;;;;;17.64;65.30;100336.88;2089010;28;19936;-76
2024/01/28 03:04:11;;;;;;;;;;;;;;;17.63;65.21;100335.22;2083590;28;20039;-76
2024/01/28 03:05:11;;;;;;;;;;;;;;;17.60;65.30;100332.81;2086665;28;19928;-78
2024/01/28 03:06:12;;;;;;;;;;;;;;;17.66;65.31;100334.03;2088467;28;20984;-77
2024/01/28 03:07:14;;;;;;;;;;;;;;;17.63;65.28;100329.84;2087528;28;19932;-76
2024/01/28 03:08:15;;;;;;;;;;;;;;;17.62;64.87;100338.88;2084894;28;19925;-79
2024/01/28 03:09:18;;;;;;;;;;;;;;;17.62;65.21;100338.03;2089737;28;19928;-78
2024/01/28 03:10:19;;;;;;;;;;;;;;;17.59;65.41;100336.50;2087644;28;19928;-77
2024/01/28 03:11:20;;;;;;;;;;;;;;;17.59;65.33;100344.56;2088672;28;20047;-78
2024/01/28 03:12:21;;;;;;;;;;;;;;;17.58;65.32;100337.50;2090414;28;19924;-75
2024/01/28 03:13:23;;;;;;;;;;;;;;;17.60;65.15;100343.53;2087853;28;20342;-77
2024/01/28 03:14:23;;;;;;;;;;;;;;;17.58;65.47;100342.88;2091548;28;20013;-76
2024/01/28 03:15:25;;;;;;;;;;;;;;;17.57;65.16;100346.53;2089461;28;19958;-75
2024/01/28 03:16:26;;;;;;;;;;;;;;;17.57;65.19;100343.88;2088042;28;19932;-75
2024/01/28 03:17:28;;;;;;;;;;;;;;;17.56;65.38;100346.72;2087939;28;20245;-77
2024/01/28 03:18:28;;;;;;;;;;;;;;;17.53;65.50;100345.19;2088390;28;19940;-75
2024/01/28 03:19:29;;;;;;;;;;;;;;;17.54;65.49;100346.84;2088711;28;19929;-75
2024/01/28 03:20:31;;;;;;;;;;;;;;;17.53;65.63;100347.88;2089853;28;19928;-75
2024/01/28 03:21:31;;;;;;;;;;;;;;;17.55;65.70;100348.56;2088184;28;19925;-76
2024/01/28 03:22:32;;;;;;;;;;;;;;;17.54;65.64;100351.38;2090004;28;19980;-77
2024/01/28 03:23:34;;;;;;;;;;;;;;;17.51;65.62;100347.16;2089849;28;19940;-78
2024/01/28 03:24:36;;;;;;;;;;;;;;;17.52;65.50;100343.47;2089646;28;20321;-76
2024/01/28 03:25:38;;;;;;;;;;;;;;;17.51;65.29;100346.34;2088024;28;20154;-79
2024/01/28 03:26:39;;;;;;;;;;;;;;;17.49;65.59;100351.84;2087517;28;20254;-77
2024/01/28 03:27:40;;;;;;;;;;;;;;;17.47;65.58;100351.19;2089592;28;19978;-80
2024/01/28 03:28:41;;;;;;;;;;;;;;;17.46;65.60;100359.38;2088752;28;20035;-76
2024/01/28 03:29:43;;;;;;;;;;;;;;;17.45;65.83;100361.22;2087303;28;20036;-78
2024/01/28 03:30:43;;;;;;;;;;;;;;;17.46;65.52;100364.72;2090841;28;19928;-76
2024/01/28 03:31:46;;;;;;;;;;;;;;;17.49;65.81;100357.19;2088792;28;19938;-76
2024/01/28 03:32:47;;;;;;;;;;;;;;;17.49;65.54;100367.94;2089909;28;19936;-76
2024/01/28 03:33:48;;;;;;;;;;;;;;;17.48;65.79;100360.91;2089988;28;20481;-76
2024/01/28 03:34:49;;;;;;;;;;;;;;;17.47;65.66;100364.59;2086011;28;21064;-75
2024/01/28 03:35:51;;;;;;;;;;;;;;;17.51;65.64;100362.44;2088792;28;20023;-80
2024/01/28 03:36:51;;;;;;;;;;;;;;;17.48;65.81;100360.91;2089895;28;19935;-76
2024/01/28 03:37:53;;;;;;;;;;;;;;;17.46;65.73;100359.38;2088658;28;20027;-77
2024/01/28 03:38:54;;;;;;;;;;;;;;;17.45;65.68;100355.84;2087514;28;20300;-76
2024/01/28 03:39:57;;;;;;;;;;;;;;;17.47;65.71;100356.53;2089234;28;20027;-77
2024/01/28 03:40:58;;;;;;;;;;;;;;;17.47;65.42;100355.66;2089747;28;19974;-76
2024/01/28 03:42:03;;;;;;;;;;;;;;;17.45;65.60;100361.22;2089682;28;21341;-80
2024/01/28 03:43:04;;;;;;;;;;;;;;;17.43;65.45;100360.50;2090191;28;20015;-76
2024/01/28 03:44:06;;;;;;;;;;;;;;;17.42;65.58;100353.47;2088279;28;19932;-79
2024/01/28 03:45:07;;;;;;;;;;;;;;;17.43;65.47;100352.47;2090146;28;19939;-79
2024/01/28 03:46:09;;;;;;;;;;;;;;;17.41;65.79;100358.00;2087423;28;21278;-78
2024/01/28 03:47:09;;;;;;;;;;;;;;;17.43;65.59;100363.19;2086219;28;19932;-77
2024/01/28 03:48:11;;;;;;;;;;;;;;;17.39;65.70;100370.72;2091034;28;19935;-77
2024/01/28 03:49:11;;;;;;;;;;;;;;;17.41;65.46;100368.72;2089629;28;20525;-76
2024/01/28 03:50:13;;;;;;;;;;;;;;;17.40;65.41;100364.34;2087277;28;20027;-78
2024/01/28 03:51:14;;;;;;;;;;;;;;;17.41;65.55;100362.50;2091126;28;19935;-76
2024/01/28 03:52:16;;;;;;;;;;;;;;;17.42;65.70;100358.84;2088129;28;19971;-76
2024/01/28 03:53:17;;;;;;;;;;;;;;;17.41;65.56;100359.81;2089037;28;19967;-80
2024/01/28 03:54:18;;;;;;;;;;;;;;;17.41;65.73;100365.19;2088754;28;20304;-76
2024/01/28 03:55:21;;;;;;;;;;;;;;;17.39;65.94;100369.88;2087933;28;19970;-81
2024/01/28 03:56:22;;;;;;;;;;;;;;;17.40;65.48;100366.19;2089001;28;20366;-77
2024/01/28 03:57:24;;;;;;;;;;;;;;;17.38;65.45;100362.81;2088605;28;19932;-76
2024/01/28 03:58:24;;;;;;;;;;;;;;;17.38;65.55;100370.84;2088382;28;20357;-77
2024/01/28 03:59:27;;;;;;;;;;;;;;;17.39;65.70;100369.88;2088403;28;19924;-81
2024/01/28 04:00:28;;;;;;;;;;;;;;;17.39;65.52;100369.88;2087286;28;19956;-78
2024/01/28 04:01:31;;;;;;;;;;;;;;;17.37;65.56;100370.00;2088301;28;19946;-77
2024/01/28 04:02:31;;;;;;;;;;;;;;;17.38;65.45;100370.84;2089689;28;19963;-80
2024/01/28 04:03:33;;;;;;;;;;;;;;;17.39;65.52;100367.19;2089467;28;19928;-76
2024/01/28 04:04:34;;;;;;;;;;;;;;;17.37;65.52;100369.19;2090757;28;19929;-76
2024/01/28 04:05:36;;;;;;;;;;;;;;;17.33;65.58;100371.34;2087271;28;19964;-79
2024/01/28 04:06:41;;;;;;;;;;;;;;;17.35;65.73;100372.00;2090735;28;19939;-77
2024/01/28 04:07:42;;;;;;;;;;;;;;;17.33;65.69;100371.34;2085898;28;19982;-79
2024/01/28 04:08:43;;;;;;;;;;;;;;;17.32;65.57;100372.31;2087537;28;19928;-76
2024/01/28 04:09:44;;;;;;;;;;;;;;;17.35;65.40;100373.84;2088744;28;19929;-77
2024/01/28 04:10:47;;;;;;;;;;;;;;;17.36;65.61;100371.03;2090051;28;19968;-77
2024/01/28 04:11:48;;;;;;;;;;;;;;;17.34;65.60;100377.53;2087967;28;19939;-76
2024/01/28 04:12:49;;;;;;;;;;;;;;;17.34;65.41;100373.00;2091622;28;20004;-76
2024/01/28 04:13:50;;;;;;;;;;;;;;;17.34;65.45;100374.84;2088628;28;20077;-77
2024/01/28 04:14:51;;;;;;;;;;;;;;;17.31;65.57;100373.31;2087799;28;19932;-77
2024/01/28 04:15:52;;;;;;;;;;;;;;;17.29;65.65;100374.47;2088690;28;19975;-76
2024/01/28 04:16:54;;;;;;;;;;;;;;;17.30;65.66;100373.44;2086651;28;19939;-79
2024/01/28 04:17:54;;;;;;;;;;;;;;;17.29;65.61;100375.31;2088222;28;19940;-76
2024/01/28 04:18:56;;;;;;;;;;;;;;;17.34;65.82;100374.84;2078684;28;20019;-77
2024/01/28 04:19:57;;;;;;;;;;;;;;;17.29;65.66;100371.78;2085656;28;21844;-76
2024/01/28 04:20:59;;;;;;;;;;;;;;;17.29;65.80;100369.94;2089298;28;19928;-75
2024/01/28 04:21:59;;;;;;;;;;;;;;;17.27;65.79;100376.44;2090424;28;21527;-76
2024/01/28 04:23:01;;;;;;;;;;;;;;;17.27;65.91;100377.28;2088895;28;20580;-77
2024/01/28 04:24:02;;;;;;;;;;;;;;;17.28;65.89;100375.47;2090499;28;19928;-76
2024/01/28 04:25:04;;;;;;;;;;;;;;;17.30;65.78;100378.81;2088823;28;19936;-77
2024/01/28 04:26:06;;;;;;;;;;;;;;;17.29;65.82;100380.66;2090314;28;19924;-75
2024/01/28 04:27:08;;;;;;;;;;;;;;;17.29;65.74;100380.66;2088300;28;19983;-76
2024/01/28 04:28:08;;;;;;;;;;;;;;;17.30;65.74;100386.88;2089120;28;19925;-76
2024/01/28 04:29:10;;;;;;;;;;;;;;;17.26;65.66;100380.13;2089686;28;20008;-76
2024/01/28 04:30:11;;;;;;;;;;;;;;;17.26;65.77;100380.97;2090637;28;19929;-76
2024/01/28 04:31:13;;;;;;;;;;;;;;;17.28;65.71;100384.34;2088407;28;19964;-76
2024/01/28 04:32:14;;;;;;;;;;;;;;;17.24;65.63;100388.31;2089284;28;19929;-79
2024/01/28 04:33:16;;;;;;;;;;;;;;;17.26;65.71;100390.84;2090470;28;20515;-75
2024/01/28 04:34:17;;;;;;;;;;;;;;;17.26;65.51;100390.84;2089971;28;19928;-75
2024/01/28 04:35:18;;;;;;;;;;;;;;;17.26;65.68;100390.84;2091890;28;19928;-77
2024/01/28 04:36:21;;;;;;;;;;;;;;;17.27;65.75;100387.16;2089278;28;19978;-78
2024/01/28 04:37:22;;;;;;;;;;;;;;;17.25;65.64;100391.88;2090231;28;19940;-77
2024/01/28 04:38:23;;;;;;;;;;;;;;;17.22;65.82;100394.81;2091178;28;20587;-76
2024/01/28 04:39:25;;;;;;;;;;;;;;;17.20;65.67;100384.25;2090254;28;19936;-80
2024/01/28 04:40:27;;;;;;;;;;;;;;;17.24;65.70;100387.47;2090970;28;19979;-75
2024/01/28 04:41:29;;;;;;;;;;;;;;;17.24;65.64;100398.19;2089908;28;19936;-75
2024/01/28 04:42:31;;;;;;;;;;;;;;;17.22;65.59;100386.78;2090684;28;19935;-76
2024/01/28 04:43:32;;;;;;;;;;;;;;;17.20;65.69;100389.63;2088371;28;19968;-76
2024/01/28 04:44:33;;;;;;;;;;;;;;;17.23;65.67;100383.97;2089408;28;19928;-76
2024/01/28 04:45:34;;;;;;;;;;;;;;;17.24;65.78;100392.84;2087449;28;19933;-76
2024/01/28 04:46:36;;;;;;;;;;;;;;;17.22;65.59;100384.09;2088890;28;19937;-76
2024/01/28 04:47:37;;;;;;;;;;;;;;;17.18;65.87;100395.13;2089317;28;19928;-77
2024/01/28 04:48:39;;;;;;;;;;;;;;;17.19;65.55;100396.00;2088971;28;19981;-77
2024/01/28 04:49:40;;;;;;;;;;;;;;;17.19;65.66;100399.53;2085476;28;20623;-77
2024/01/28 04:50:41;;;;;;;;;;;;;;;17.18;65.64;100405.84;2091133;28;20019;-76
2024/01/28 04:51:43;;;;;;;;;;;;;;;17.18;65.65;100405.00;2087957;28;19928;-77
2024/01/28 04:52:44;;;;;;;;;;;;;;;17.16;65.87;100405.19;2090455;28;20006;-77
2024/01/28 04:53:46;;;;;;;;;;;;;;;17.18;65.75;100410.38;2088513;28;20019;-76
2024/01/28 04:54:47;;;;;;;;;;;;;;;17.19;65.72;100406.72;2088934;28;19932;-78
2024/01/28 04:55:49;;;;;;;;;;;;;;;17.17;65.87;100408.72;2085797;28;20299;-78
2024/01/28 04:56:51;;;;;;;;;;;;;;;17.18;65.73;100405.84;2090348;28;19981;-76
2024/01/28 04:57:52;;;;;;;;;;;;;;;17.16;65.79;100402.50;2088291;28;19942;-75
2024/01/28 04:58:53;;;;;;;;;;;;;;;17.15;65.88;100406.16;2091453;28;19948;-76
2024/01/28 04:59:55;;;;;;;;;;;;;;;17.13;65.96;100402.81;2086512;28;20019;-75
2024/01/28 05:00:55;;;;;;;;;;;;;;;17.12;65.83;100403.78;2089975;28;20592;-75
2024/01/28 05:01:57;;;;;;;;;;;;;;;17.15;65.79;100406.16;2089261;28;19943;-76
2024/01/28 05:02:58;;;;;;;;;;;;;;;17.13;65.90;100402.81;2090782;28;19964;-76
2024/01/28 05:04:01;;;;;;;;;;;;;;;17.12;65.92;100406.47;2090626;28;21056;-76
2024/01/28 05:05:02;;;;;;;;;;;;;;;17.09;66.14;100408.63;2089525;28;19931;-75
2024/01/28 05:06:04;;;;;;;;;;;;;;;17.08;66.13;100415.81;2089401;28;19955;-75
2024/01/28 05:07:05;;;;;;;;;;;;;;;17.09;66.19;100409.44;2087407;28;19944;-75
2024/01/28 05:08:07;;;;;;;;;;;;;;;17.09;66.33;100413.97;2087245;28;19947;-75
2024/01/28 05:09:10;;;;;;;;;;;;;;;17.07;66.09;100414.13;2090335;28;20470;-75
2024/01/28 05:10:12;;;;;;;;;;;;;;;17.08;66.08;100417.66;2088688;28;20064;-76
2024/01/28 05:11:14;;;;;;;;;;;;;;;17.08;66.08;100415.81;2090160;28;20447;-77
2024/01/28 05:12:16;;;;;;;;;;;;;;;17.10;65.83;100411.13;2088800;28;19974;-75
2024/01/28 05:13:18;;;;;;;;;;;;;;;17.07;65.96;100419.47;2087807;28;19924;-75
2024/01/28 05:14:20;;;;;;;;;;;;;;;17.07;66.26;100419.47;2087500;28;20303;-75
2024/01/28 05:15:20;;;;;;;;;;;;;;;17.07;66.05;100413.28;2089848;28;20186;-75